Time;durP1;ratioP1;P1;durP2;ratioP2;P2;SDS_P1;SDS_P2;PMS_P1;PMS_P2;Temp;Humidity;BMP_temperature;BMP_pressure;BME280_temperature;BME280_humidity;BME280_pressure;Samples;Min_cycle;Max_cycle;Signal;HPM_P1;HPM_P2
2023/10/26 00:02:03;;;;;;;;;;;;;;;;;;4994301;28;20048;-67
2023/10/26 00:04:28;;;;;;;;;;;;;;;;;;5006179;28;19963;-67
2023/10/26 00:06:54;;;;;;;;;;;;;;;;;;5006128;28;19920;-67
2023/10/26 00:09:21;;;;;;;;;;;;;;;;;;5002620;28;19924;-67
2023/10/26 00:11:52;;;;;;;;;;;;;;;;;;5003106;28;19929;-68
2023/10/26 00:14:18;;;;;;;;;;;;;;;;;;5006634;28;21617;-67
2023/10/26 00:16:43;;;;;;;;;;;;;;;;;;4989714;28;19960;-67
2023/10/26 00:19:08;;;;;;;;;;;;;;;;;;5005897;28;19928;-67
2023/10/26 00:21:33;;;;;;;;;;;;;;;;;;5003296;28;19921;-67
2023/10/26 00:23:59;;;;;;;;;;;;;;;;;;4992365;28;19928;-67
2023/10/26 00:26:24;;;;;;;;;;;;;;;;;;5005017;28;19921;-67
2023/10/26 00:28:49;;;;;;;;;;;;;;;;;;5006433;28;19927;-68
2023/10/26 00:31:14;;;;;;;;;;;;;;;;;;5005178;28;20278;-67
2023/10/26 00:33:40;;;;;;;;;;;;;;;;;;4994062;28;19917;-67
2023/10/26 00:36:05;;;;;;;;;;;;;;;;;;5004156;28;20488;-67
2023/10/26 00:38:33;;;;;;;;;;;;;;;;;;4994389;28;20375;-68
2023/10/26 00:40:58;;;;;;;;;;;;;;;;;;5004470;28;19975;-67
2023/10/26 00:43:26;;;;;;;;;;;;;;;;;;5002307;28;19979;-68
2023/10/26 00:45:52;;;;;;;;;;;;;;;;;;5003945;28;20385;-69
2023/10/26 00:48:17;;;;;;;;;;;;;;;;;;4983340;28;19924;-68
2023/10/26 00:50:42;;;;;;;;;;;;;;;;;;5011421;28;19921;-67
2023/10/26 00:53:08;;;;;;;;;;;;;;;;;;5010285;28;20016;-67
2023/10/26 00:55:34;;;;;;;;;;;;;;;;;;4999365;28;19990;-67
2023/10/26 00:57:59;;;;;;;;;;;;;;;;;;5001603;28;19928;-67
2023/10/26 01:00:26;;;;;;;;;;;;;;;;;;4993722;28;20685;-67
2023/10/26 01:02:51;;;;;;;;;;;;;;;;;;5004476;28;20391;-67
2023/10/26 01:05:19;;;;;;;;;;;;;;;;;;5007305;28;19913;-67
2023/10/26 01:07:47;;;;;;;;;;;;;;;;;;5006319;28;20439;-67
2023/10/26 01:10:12;;;;;;;;;;;;;;;;;;5001230;28;19921;-67
2023/10/26 01:12:38;;;;;;;;;;;;;;;;;;5002934;28;20651;-67
2023/10/26 01:15:04;;;;;;;;;;;;;;;;;;5004221;28;19944;-67
2023/10/26 01:17:29;;;;;;;;;;;;;;;;;;4991302;28;20017;-67
2023/10/26 01:19:54;;;;;;;;;;;;;;;;;;5004341;28;19917;-67
2023/10/26 01:22:20;;;;;;;;;;;;;;;;;;5005768;28;20376;-67
2023/10/26 01:24:48;;;;;;;;;;;;;;;;;;4999101;28;20000;-67
2023/10/26 01:27:13;;;;;;;;;;;;;;;;;;4990355;28;19921;-67
2023/10/26 01:29:39;;;;;;;;;;;;;;;;;;5005425;28;19957;-67
2023/10/26 01:32:04;;;;;;;;;;;;;;;;;;5002458;28;20328;-67
2023/10/26 01:34:29;;;;;;;;;;;;;;;;;;5002082;28;19921;-67
2023/10/26 01:36:55;;;;;;;;;;;;;;;;;;5003838;28;19917;-67
2023/10/26 01:39:20;;;;;;;;;;;;;;;;;;5004350;28;20689;-66
2023/10/26 01:41:49;;;;;;;;;;;;;;;;;;5010336;28;19918;-67
2023/10/26 01:44:14;;;;;;;;;;;;;;;;;;5002316;28;19964;-67
2023/10/26 01:46:39;;;;;;;;;;;;;;;;;;4994522;28;20012;-67
2023/10/26 01:49:05;;;;;;;;;;;;;;;;;;4983510;28;19925;-67
2023/10/26 01:51:30;;;;;;;;;;;;;;;;;;5001393;28;20119;-67
2023/10/26 01:53:55;;;;;;;;;;;;;;;;;;4999417;28;19921;-67
2023/10/26 01:56:21;;;;;;;;;;;;;;;;;;5003006;28;20023;-67
2023/10/26 01:58:46;;;;;;;;;;;;;;;;;;5003453;28;19956;-67
2023/10/26 02:01:11;;;;;;;;;;;;;;;;;;5001064;28;19928;-67
2023/10/26 02:03:39;;;;;;;;;;;;;;;;;;5004682;28;19949;-67
2023/10/26 02:06:04;;;;;;;;;;;;;;;;;;5003667;28;19949;-67
2023/10/26 02:08:30;;;;;;;;;;;;;;;;;;5000641;28;20274;-67
2023/10/26 02:10:55;;;;;;;;;;;;;;;;;;4999256;28;19921;-66
2023/10/26 02:13:20;;;;;;;;;;;;;;;;;;5003795;28;19925;-67
2023/10/26 02:15:46;;;;;;;;;;;;;;;;;;5001242;28;19917;-66
2023/10/26 02:18:14;;;;;;;;;;;;;;;;;;4991392;28;20001;-67
2023/10/26 02:20:42;;;;;;;;;;;;;;;;;;5004469;28;20456;-67
2023/10/26 02:23:07;;;;;;;;;;;;;;;;;;5004758;28;19955;-67
2023/10/26 02:25:35;;;;;;;;;;;;;;;;;;5007301;28;20032;-67
2023/10/26 02:28:00;;;;;;;;;;;;;;;;;;5002383;28;19928;-66
2023/10/26 02:30:25;;;;;;;;;;;;;;;;;;4983259;28;19921;-67
2023/10/26 02:32:51;;;;;;;;;;;;;;;;;;5005082;28;20761;-66
2023/10/26 02:35:20;;;;;;;;;;;;;;;;;;4986263;28;19917;-67
2023/10/26 02:37:48;;;;;;;;;;;;;;;;;;5009988;28;19921;-66
2023/10/26 02:40:13;;;;;;;;;;;;;;;;;;4986756;28;19929;-66
2023/10/26 02:42:44;;;;;;;;;;;;;;;;;;5009799;28;19921;-66
2023/10/26 02:45:09;;;;;;;;;;;;;;;;;;5003669;28;19917;-65
2023/10/26 02:47:43;;;;;;;;;;;;;;;;;;5007026;28;20069;-65
2023/10/26 02:50:08;;;;;;;;;;;;;;;;;;5002958;28;20331;-66
2023/10/26 02:52:33;;;;;;;;;;;;;;;;;;5003720;28;19922;-65
2023/10/26 02:54:58;;;;;;;;;;;;;;;;;;4989099;28;19929;-66
2023/10/26 02:57:24;;;;;;;;;;;;;;;;;;4990381;28;19928;-65
2023/10/26 02:59:49;;;;;;;;;;;;;;;;;;5006448;28;19928;-66
2023/10/26 03:02:14;;;;;;;;;;;;;;;;;;5007880;28;19948;-66
2023/10/26 03:04:42;;;;;;;;;;;;;;;;;;5006222;28;19917;-66
2023/10/26 03:07:07;;;;;;;;;;;;;;;;;;5006894;28;20308;-67
2023/10/26 03:09:33;;;;;;;;;;;;;;;;;;5007387;28;20004;-66
2023/10/26 03:11:58;;;;;;;;;;;;;;;;;;5005244;28;19956;-66
2023/10/26 03:14:23;;;;;;;;;;;;;;;;;;5005175;28;20083;-66
2023/10/26 03:16:49;;;;;;;;;;;;;;;;;;4994954;28;20037;-66
2023/10/26 03:19:14;;;;;;;;;;;;;;;;;;4995583;28;19933;-66
2023/10/26 03:21:42;;;;;;;;;;;;;;;;;;4995568;28;20506;-66
2023/10/26 03:24:07;;;;;;;;;;;;;;;;;;5008069;28;20011;-67
2023/10/26 03:26:33;;;;;;;;;;;;;;;;;;5006357;28;19929;-66
2023/10/26 03:28:58;;;;;;;;;;;;;;;;;;4992153;28;19918;-66
2023/10/26 03:31:23;;;;;;;;;;;;;;;;;;5004484;28;20016;-66
2023/10/26 03:33:49;;;;;;;;;;;;;;;;;;5006621;28;19928;-66
2023/10/26 03:36:14;;;;;;;;;;;;;;;;;;5012770;28;19988;-66
2023/10/26 03:38:42;;;;;;;;;;;;;;;;;;4995179;28;19921;-66
2023/10/26 03:41:07;;;;;;;;;;;;;;;;;;5007214;28;19970;-66
2023/10/26 03:43:33;;;;;;;;;;;;;;;;;;5005991;28;20440;-66
2023/10/26 03:46:00;;;;;;;;;;;;;;;;;;5007183;28;20016;-66
2023/10/26 03:48:28;;;;;;;;;;;;;;;;;;5005519;28;19979;-67
2023/10/26 03:50:56;;;;;;;;;;;;;;;;;;5004194;28;19921;-66
2023/10/26 03:53:22;;;;;;;;;;;;;;;;;;5006115;28;19971;-67
2023/10/26 03:55:49;;;;;;;;;;;;;;;;;;5001343;28;19925;-67
2023/10/26 03:58:17;;;;;;;;;;;;;;;;;;4993141;28;19964;-67
2023/10/26 04:00:47;;;;;;;;;;;;;;;;;;5004685;28;21907;-66
2023/10/26 04:03:12;;;;;;;;;;;;;;;;;;5005152;28;20990;-66
2023/10/26 04:05:40;;;;;;;;;;;;;;;;;;5004907;28;19992;-67
2023/10/26 04:08:07;;;;;;;;;;;;;;;;;;5008649;28;19918;-67
2023/10/26 04:10:32;;;;;;;;;;;;;;;;;;4996442;28;20071;-67
2023/10/26 04:12:57;;;;;;;;;;;;;;;;;;4995574;28;20273;-67
2023/10/26 04:18:17;;;;;;;;;;;;;;;;;;5009751;28;19928;-67
2023/10/26 04:20:48;;;;;;;;;;;;;;;;;;4990128;28;19921;-67
2023/10/26 04:23:16;;;;;;;;;;;;;;;;;;5005343;28;19940;-67
2023/10/26 04:25:45;;;;;;;;;;;;;;;;;;5004654;28;19971;-67
2023/10/26 04:28:13;;;;;;;;;;;;;;;;;;5005219;28;19917;-67
2023/10/26 04:30:38;;;;;;;;;;;;;;;;;;5003843;28;19969;-67
2023/10/26 04:33:03;;;;;;;;;;;;;;;;;;4994564;28;19933;-67
2023/10/26 04:35:31;;;;;;;;;;;;;;;;;;4994066;28;20004;-67
2023/10/26 04:37:56;;;;;;;;;;;;;;;;;;5006233;28;19931;-67
2023/10/26 04:40:24;;;;;;;;;;;;;;;;;;4987949;28;19922;-67
2023/10/26 04:42:49;;;;;;;;;;;;;;;;;;5005432;28;19972;-67
2023/10/26 04:45:17;;;;;;;;;;;;;;;;;;5006918;28;19917;-67
2023/10/26 04:47:42;;;;;;;;;;;;;;;;;;4991566;28;20017;-67
2023/10/26 04:50:08;;;;;;;;;;;;;;;;;;4993105;28;20013;-67
2023/10/26 04:52:33;;;;;;;;;;;;;;;;;;5004589;28;19925;-67
2023/10/26 04:54:58;;;;;;;;;;;;;;;;;;5001216;28;19921;-67
2023/10/26 04:57:26;;;;;;;;;;;;;;;;;;5003975;28;19927;-67
2023/10/26 04:59:53;;;;;;;;;;;;;;;;;;5003122;28;19991;-67
2023/10/26 05:02:19;;;;;;;;;;;;;;;;;;5007191;28;20420;-67
2023/10/26 05:04:44;;;;;;;;;;;;;;;;;;5005085;28;20415;-67
2023/10/26 05:07:09;;;;;;;;;;;;;;;;;;5008641;28;20488;-67
2023/10/26 05:09:35;;;;;;;;;;;;;;;;;;5002859;28;19939;-67
2023/10/26 05:12:01;;;;;;;;;;;;;;;;;;4992036;28;20005;-67
2023/10/26 05:14:26;;;;;;;;;;;;;;;;;;5005831;28;19975;-67
2023/10/26 05:20:08;;;;;;;;;;;;;;;;;;5004027;28;19924;-67
2023/10/26 05:22:34;;;;;;;;;;;;;;;;;;5007349;28;19926;-67
2023/10/26 05:25:05;;;;;;;;;;;;;;;;;;5000257;28;19917;-67
2023/10/26 05:27:30;;;;;;;;;;;;;;;;;;5007922;28;19921;-67
2023/10/26 05:29:56;;;;;;;;;;;;;;;;;;5003230;28;19921;-67
2023/10/26 05:32:23;;;;;;;;;;;;;;;;;;5004129;28;19917;-67
2023/10/26 05:34:51;;;;;;;;;;;;;;;;;;4991487;28;19921;-68
2023/10/26 05:37:16;;;;;;;;;;;;;;;;;;5007507;28;20415;-67
2023/10/26 05:39:42;;;;;;;;;;;;;;;;;;4991793;28;20419;-67
2023/10/26 05:42:07;;;;;;;;;;;;;;;;;;5004719;28;19921;-67
2023/10/26 05:44:32;;;;;;;;;;;;;;;;;;4985255;28;20305;-67
2023/10/26 05:46:59;;;;;;;;;;;;;;;;;;4993011;28;19943;-68
2023/10/26 05:49:24;;;;;;;;;;;;;;;;;;5009942;28;20031;-67
2023/10/26 05:51:50;;;;;;;;;;;;;;;;;;5003127;28;19921;-68
2023/10/26 05:54:15;;;;;;;;;;;;;;;;;;5002694;28;19960;-67
2023/10/26 05:56:40;;;;;;;;;;;;;;;;;;5002369;28;20338;-67
2023/10/26 05:59:05;;;;;;;;;;;;;;;;;;5002846;28;20365;-68
2023/10/26 06:01:32;;;;;;;;;;;;;;;;;;4988454;28;20312;-68
2023/10/26 06:04:00;;;;;;;;;;;;;;;;;;5005347;28;20513;-68
2023/10/26 06:06:26;;;;;;;;;;;;;;;;;;5010307;28;20006;-67
2023/10/26 06:08:51;;;;;;;;;;;;;;;;;;5005810;28;19921;-67
2023/10/26 06:11:16;;;;;;;;;;;;;;;;;;5004622;28;19921;-67
2023/10/26 06:13:44;;;;;;;;;;;;;;;;;;4984494;28;19968;-67
2023/10/26 06:16:15;;;;;;;;;;;;;;;;;;4985247;28;19957;-67
2023/10/26 06:18:43;;;;;;;;;;;;;;;;;;4983804;28;19917;-67
2023/10/26 06:21:08;;;;;;;;;;;;;;;;;;4969878;28;20052;-67
2023/10/26 06:23:33;;;;;;;;;;;;;;;;;;4986120;28;20398;-67
2023/10/26 06:25:59;;;;;;;;;;;;;;;;;;4984872;28;19921;-67
2023/10/26 06:28:29;;;;;;;;;;;;;;;;;;4992397;28;19937;-67
2023/10/26 06:30:55;;;;;;;;;;;;;;;;;;4988045;28;20012;-68
2023/10/26 06:33:20;;;;;;;;;;;;;;;;;;4978055;28;19932;-68
2023/10/26 06:35:49;;;;;;;;;;;;;;;;;;4988339;28;20370;-68
2023/10/26 06:41:31;;;;;;;;;;;;;;;;;;4989735;28;20331;-68
2023/10/26 06:43:57;;;;;;;;;;;;;;;;;;4988658;28;19926;-68
2023/10/26 06:46:24;;;;;;;;;;;;;;;;;;4974387;28;20370;-67
2023/10/26 06:48:52;;;;;;;;;;;;;;;;;;4987204;28;19928;-68
2023/10/26 06:51:18;;;;;;;;;;;;;;;;;;4975341;28;20407;-68
2023/10/26 06:53:44;;;;;;;;;;;;;;;;;;4969987;28;20004;-67
2023/10/26 06:56:09;;;;;;;;;;;;;;;;;;4992649;28;19931;-67
2023/10/26 06:58:35;;;;;;;;;;;;;;;;;;4978268;28;19922;-67
2023/10/26 07:01:00;;;;;;;;;;;;;;;;;;4989027;28;19929;-68
2023/10/26 07:03:25;;;;;;;;;;;;;;;;;;4988970;28;19925;-67
2023/10/26 07:05:51;;;;;;;;;;;;;;;;;;4990393;28;20327;-67
2023/10/26 07:08:16;;;;;;;;;;;;;;;;;;4992760;28;20331;-67
2023/10/26 07:10:42;;;;;;;;;;;;;;;;;;4994749;28;19922;-67
2023/10/26 07:13:08;;;;;;;;;;;;;;;;;;4992081;28;20384;-67
2023/10/26 07:15:33;;;;;;;;;;;;;;;;;;5008130;28;20192;-67
2023/10/26 07:17:58;;;;;;;;;;;;;;;;;;5007090;28;20653;-67
2023/10/26 07:20:26;;;;;;;;;;;;;;;;;;5005405;28;20004;-67
2023/10/26 07:22:52;;;;;;;;;;;;;;;;;;5012781;28;19921;-67
2023/10/26 07:25:18;;;;;;;;;;;;;;;;;;5007627;28;19963;-67
2023/10/26 07:27:43;;;;;;;;;;;;;;;;;;5007896;28;20545;-67
2023/10/26 07:33:25;;;;;;;;;;;;;;;;;;5004665;28;20021;-67
2023/10/26 07:35:51;;;;;;;;;;;;;;;;;;5008719;28;19925;-67
2023/10/26 07:38:17;;;;;;;;;;;;;;;;;;5006910;28;19960;-67
2023/10/26 07:40:42;;;;;;;;;;;;;;;;;;5001809;28;19922;-68
2023/10/26 07:43:09;;;;;;;;;;;;;;;;;;5004213;28;19991;-68
2023/10/26 07:45:35;;;;;;;;;;;;;;;;;;5008350;28;20297;-68
2023/10/26 07:48:03;;;;;;;;;;;;;;;;;;5003492;28;19955;-69
2023/10/26 07:50:28;;;;;;;;;;;;;;;;;;5000682;28;19953;-72
2023/10/26 07:52:54;;;;;;;;;;;;;;;;;;4994633;28;19921;-73
2023/10/26 07:55:37;;;;;;;;;;;;;;;;;;4990864;28;20480;-72
2023/10/26 07:58:03;;;;;;;;;;;;;;;;;;4996064;28;19917;-72
2023/10/26 08:00:28;;;;;;;;;;;;;;;;;;5005672;28;19939;-72
2023/10/26 08:02:54;;;;;;;;;;;;;;;;;;4994650;28;19996;-72
2023/10/26 08:05:19;;;;;;;;;;;;;;;;;;5002362;28;19921;-72
2023/10/26 08:07:47;;;;;;;;;;;;;;;;;;5005314;28;20261;-73
2023/10/26 08:10:27;;;;;;;;;;;;;;;;;;5005188;28;19925;-72
2023/10/26 08:16:09;;;;;;;;;;;;;;;;;;5005191;28;19942;-69
2023/10/26 08:18:35;;;;;;;;;;;;;;;;;;5007973;28;20389;-72
2023/10/26 08:21:03;;;;;;;;;;;;;;;;;;4987056;28;20314;-70
2023/10/26 08:23:29;;;;;;;;;;;;;;;;;;5003486;28;20482;-72
2023/10/26 08:25:55;;;;;;;;;;;;;;;;;;5008675;28;20184;-71
2023/10/26 08:28:20;;;;;;;;;;;;;;;;;;5005605;28;20466;-72
2023/10/26 08:30:52;;;;;;;;;;;;;;;;;;5022390;28;19921;-71
2023/10/26 08:33:17;;;;;;;;;;;;;;;;;;5002757;28;19925;-72
2023/10/26 08:35:43;;;;;;;;;;;;;;;;;;5006707;28;19974;-72
2023/10/26 08:38:08;;;;;;;;;;;;;;;;;;5005228;28;19956;-71
2023/10/26 08:40:34;;;;;;;;;;;;;;;;;;5004000;28;19921;-71
2023/10/26 08:43:00;;;;;;;;;;;;;;;;;;5011379;28;20021;-72
2023/10/26 08:45:27;;;;;;;;;;;;;;;;;;5007274;28;20904;-72
2023/10/26 08:47:52;;;;;;;;;;;;;;;;;;5002820;28;20055;-72
2023/10/26 08:50:18;;;;;;;;;;;;;;;;;;5010094;28;20258;-72
2023/10/26 08:52:43;;;;;;;;;;;;;;;;;;5004884;28;20455;-72
2023/10/26 08:55:08;;;;;;;;;;;;;;;;;;5005293;28;20335;-72
2023/10/26 08:57:34;;;;;;;;;;;;;;;;;;4997393;28;20284;-72
2023/10/26 08:59:59;;;;;;;;;;;;;;;;;;5008558;28;20348;-72
2023/10/26 09:02:25;;;;;;;;;;;;;;;;;;5005870;28;19917;-72
2023/10/26 09:04:50;;;;;;;;;;;;;;;;;;5005130;28;19968;-71
2023/10/26 09:07:16;;;;;;;;;;;;;;;;;;5006572;28;19978;-71
2023/10/26 09:09:41;;;;;;;;;;;;;;;;;;5004572;28;19917;-71
2023/10/26 09:12:06;;;;;;;;;;;;;;;;;;4994271;28;19952;-70
2023/10/26 09:14:32;;;;;;;;;;;;;;;;;;5003853;28;19971;-71
2023/10/26 09:16:58;;;;;;;;;;;;;;;;;;5004885;28;19951;-70
2023/10/26 09:19:23;;;;;;;;;;;;;;;;;;5005821;28;19929;-70
2023/10/26 09:21:52;;;;;;;;;;;;;;;;;;4995534;28;19967;-70
2023/10/26 09:24:18;;;;;;;;;;;;;;;;;;4994245;28;20514;-70
2023/10/26 09:26:43;;;;;;;;;;;;;;;;;;5007989;28;20207;-70
2023/10/26 09:29:09;;;;;;;;;;;;;;;;;;4993113;28;19921;-70
2023/10/26 09:31:37;;;;;;;;;;;;;;;;;;5004373;28;19921;-69
2023/10/26 09:34:02;;;;;;;;;;;;;;;;;;5004846;28;19917;-70
2023/10/26 09:36:27;;;;;;;;;;;;;;;;;;4992588;28;19995;-69
2023/10/26 09:38:52;;;;;;;;;;;;;;;;;;5001875;28;20396;-68
2023/10/26 09:41:20;;;;;;;;;;;;;;;;;;4992646;28;19939;-70
2023/10/26 09:43:46;;;;;;;;;;;;;;;;;;5004033;28;19917;-69
2023/10/26 09:49:30;;;;;;;;;;;;;;;;;;5004125;28;19932;-68
2023/10/26 09:51:55;;;;;;;;;;;;;;;;;;5006095;28;19928;-68
2023/10/26 09:54:21;;;;;;;;;;;;;;;;;;5003702;28;20206;-68
2023/10/26 09:56:46;;;;;;;;;;;;;;;;;;5004338;28;19921;-69
2023/10/26 09:59:11;;;;;;;;;;;;;;;;;;5004521;28;19921;-68
2023/10/26 10:01:40;;;;;;;;;;;;;;;;;;4986828;28;19914;-69
2023/10/26 10:04:08;;;;;;;;;;;;;;;;;;5006815;28;20626;-68
2023/10/26 10:06:33;;;;;;;;;;;;;;;;;;5009226;28;19928;-68
2023/10/26 10:08:59;;;;;;;;;;;;;;;;;;4988956;28;19955;-68
2023/10/26 10:11:25;;;;;;;;;;;;;;;;;;5009085;28;19929;-69
2023/10/26 10:13:51;;;;;;;;;;;;;;;;;;5008620;28;19922;-69
2023/10/26 10:16:16;;;;;;;;;;;;;;;;;;4999187;28;19975;-69
2023/10/26 10:18:41;;;;;;;;;;;;;;;;;;5006847;28;19925;-68
2023/10/26 10:21:07;;;;;;;;;;;;;;;;;;5010805;28;20360;-68
2023/10/26 10:23:32;;;;;;;;;;;;;;;;;;5006968;28;20328;-68
2023/10/26 10:26:03;;;;;;;;;;;;;;;;;;4996630;28;19928;-68
2023/10/26 10:28:33;;;;;;;;;;;;;;;;;;4991988;28;21247;-68
2023/10/26 10:30:59;;;;;;;;;;;;;;;;;;5008758;28;19929;-68
2023/10/26 10:33:26;;;;;;;;;;;;;;;;;;4997415;28;19924;-68
2023/10/26 10:35:56;;;;;;;;;;;;;;;;;;5009215;28;19940;-68
2023/10/26 10:38:24;;;;;;;;;;;;;;;;;;5008786;28;22061;-67
2023/10/26 10:40:52;;;;;;;;;;;;;;;;;;5008862;28;19948;-67
2023/10/26 10:43:17;;;;;;;;;;;;;;;;;;5005393;28;19952;-68
2023/10/26 10:45:42;;;;;;;;;;;;;;;;;;4997660;28;20512;-67
2023/10/26 10:48:10;;;;;;;;;;;;;;;;;;4995829;28;19948;-67
2023/10/26 10:50:35;;;;;;;;;;;;;;;;;;5009297;28;19925;-67
2023/10/26 10:53:00;;;;;;;;;;;;;;;;;;5022599;28;20352;-68
2023/10/26 10:55:26;;;;;;;;;;;;;;;;;;5013744;28;19952;-68
2023/10/26 10:57:51;;;;;;;;;;;;;;;;;;4998888;28;19917;-67
2023/10/26 11:00:16;;;;;;;;;;;;;;;;;;5009365;28;19921;-68
2023/10/26 11:02:47;;;;;;;;;;;;;;;;;;4998599;28;19975;-67
2023/10/26 11:05:16;;;;;;;;;;;;;;;;;;4998050;28;20012;-67
2023/10/26 11:07:41;;;;;;;;;;;;;;;;;;5008710;28;19987;-67
2023/10/26 11:10:09;;;;;;;;;;;;;;;;;;4995213;28;19967;-67
2023/10/26 11:12:37;;;;;;;;;;;;;;;;;;5005784;28;19925;-66
2023/10/26 11:15:03;;;;;;;;;;;;;;;;;;5005123;28;21357;-67
2023/10/26 11:17:31;;;;;;;;;;;;;;;;;;5007509;28;20094;-67
2023/10/26 11:19:57;;;;;;;;;;;;;;;;;;4989863;28;20381;-66
2023/10/26 11:22:22;;;;;;;;;;;;;;;;;;4995471;28;19928;-66
2023/10/26 11:24:47;;;;;;;;;;;;;;;;;;4987977;28;20391;-66
2023/10/26 11:27:13;;;;;;;;;;;;;;;;;;5007684;28;20375;-66
2023/10/26 11:29:42;;;;;;;;;;;;;;;;;;4994870;28;20461;-66
2023/10/26 11:32:09;;;;;;;;;;;;;;;;;;5010771;28;20071;-67
2023/10/26 11:34:38;;;;;;;;;;;;;;;;;;4997001;28;19928;-67
2023/10/26 11:37:06;;;;;;;;;;;;;;;;;;5006030;28;20324;-66
2023/10/26 11:39:31;;;;;;;;;;;;;;;;;;4995266;28;20084;-66
2023/10/26 11:41:56;;;;;;;;;;;;;;;;;;5010125;28;19960;-67
2023/10/26 11:44:22;;;;;;;;;;;;;;;;;;5005756;28;20025;-66
2023/10/26 11:46:47;;;;;;;;;;;;;;;;;;5013186;28;19917;-67
2023/10/26 11:49:15;;;;;;;;;;;;;;;;;;4994018;28;19928;-67
2023/10/26 11:51:57;;;;;;;;;;;;;;;;;;5007977;28;20023;-67
2023/10/26 11:54:22;;;;;;;;;;;;;;;;;;5008434;28;19921;-67
2023/10/26 11:56:47;;;;;;;;;;;;;;;;;;4988551;28;19924;-67
2023/10/26 12:02:29;;;;;;;;;;;;;;;;;;5006716;28;20296;-68
2023/10/26 12:04:59;;;;;;;;;;;;;;;;;;5013252;28;20361;-67
2023/10/26 12:07:26;;;;;;;;;;;;;;;;;;4996536;28;19921;-66
2023/10/26 12:09:55;;;;;;;;;;;;;;;;;;5011181;28;20588;-66
2023/10/26 12:12:29;;;;;;;;;;;;;;;;;;4995586;28;20496;-67
2023/10/26 12:14:54;;;;;;;;;;;;;;;;;;5005455;28;19979;-67
2023/10/26 12:17:19;;;;;;;;;;;;;;;;;;4994534;28;19925;-67
2023/10/26 12:19:46;;;;;;;;;;;;;;;;;;5011999;28;19968;-66
2023/10/26 12:22:11;;;;;;;;;;;;;;;;;;5009901;28;19918;-66
2023/10/26 12:24:39;;;;;;;;;;;;;;;;;;4993799;28;20262;-66
2023/10/26 12:27:06;;;;;;;;;;;;;;;;;;4994110;28;19917;-66
2023/10/26 12:29:32;;;;;;;;;;;;;;;;;;4995525;28;20205;-67
2023/10/26 12:31:57;;;;;;;;;;;;;;;;;;4993958;28;20548;-66
2023/10/26 12:34:22;;;;;;;;;;;;;;;;;;4992935;28;20440;-67
2023/10/26 12:36:48;;;;;;;;;;;;;;;;;;4993497;28;19944;-67
2023/10/26 12:39:14;;;;;;;;;;;;;;;;;;5010969;28;20370;-67
2023/10/26 12:41:40;;;;;;;;;;;;;;;;;;5008532;28;20365;-67
2023/10/26 12:44:08;;;;;;;;;;;;;;;;;;5003526;28;19928;-67
2023/10/26 12:46:35;;;;;;;;;;;;;;;;;;4990070;28;20073;-67
2023/10/26 12:49:03;;;;;;;;;;;;;;;;;;4987381;28;19917;-66
2023/10/26 12:51:31;;;;;;;;;;;;;;;;;;4996419;28;20352;-66
2023/10/26 12:53:57;;;;;;;;;;;;;;;;;;4997070;28;19925;-66
2023/10/26 12:56:22;;;;;;;;;;;;;;;;;;5001768;28;20014;-66
2023/10/26 12:58:52;;;;;;;;;;;;;;;;;;5005091;28;19925;-66
2023/10/26 13:01:20;;;;;;;;;;;;;;;;;;5019922;28;19924;-67
2023/10/26 13:03:46;;;;;;;;;;;;;;;;;;5002276;28;19918;-66
2023/10/26 13:06:14;;;;;;;;;;;;;;;;;;5006590;28;19921;-66
2023/10/26 13:08:42;;;;;;;;;;;;;;;;;;5002617;28;19925;-66
2023/10/26 13:11:07;;;;;;;;;;;;;;;;;;5003947;28;19920;-67
2023/10/26 13:16:33;;;;;;;;;;;;;;;;;;4983737;28;20632;-66
2023/10/26 13:18:58;;;;;;;;;;;;;;;;;;4982180;28;19917;-66
2023/10/26 13:21:23;;;;;;;;;;;;;;;;;;4984948;28;19999;-65
2023/10/26 13:23:51;;;;;;;;;;;;;;;;;;4973159;28;20373;-67
2023/10/26 13:26:16;;;;;;;;;;;;;;;;;;4984990;28;19980;-66
2023/10/26 13:28:41;;;;;;;;;;;;;;;;;;4969518;28;19917;-66
2023/10/26 13:31:06;;;;;;;;;;;;;;;;;;4986180;28;19918;-67
2023/10/26 13:33:34;;;;;;;;;;;;;;;;;;4990119;28;19936;-69
2023/10/26 13:36:02;;;;;;;;;;;;;;;;;;4969669;28;19960;-66
2023/10/26 13:38:28;;;;;;;;;;;;;;;;;;4985460;28;19924;-66
2023/10/26 13:40:53;;;;;;;;;;;;;;;;;;4991118;28;19922;-65
2023/10/26 13:43:21;;;;;;;;;;;;;;;;;;4986724;28;20073;-66
2023/10/26 13:45:51;;;;;;;;;;;;;;;;;;4983626;28;19924;-66
2023/10/26 13:48:20;;;;;;;;;;;;;;;;;;4985262;28;19924;-67
2023/10/26 13:50:45;;;;;;;;;;;;;;;;;;4987715;28;19921;-65
2023/10/26 13:53:11;;;;;;;;;;;;;;;;;;4987548;28;19951;-66
2023/10/26 13:55:38;;;;;;;;;;;;;;;;;;4982710;28;19925;-66
2023/10/26 13:58:05;;;;;;;;;;;;;;;;;;4990930;28;20352;-66
2023/10/26 14:00:30;;;;;;;;;;;;;;;;;;4971968;28;19922;-66
2023/10/26 14:02:59;;;;;;;;;;;;;;;;;;4985883;28;20415;-66
2023/10/26 14:05:24;;;;;;;;;;;;;;;;;;4983830;28;19928;-66
2023/10/26 14:07:52;;;;;;;;;;;;;;;;;;4986864;28;19917;-65
2023/10/26 14:10:18;;;;;;;;;;;;;;;;;;4980323;28;20017;-66
2023/10/26 14:12:47;;;;;;;;;;;;;;;;;;4989804;28;20146;-66
2023/10/26 14:15:15;;;;;;;;;;;;;;;;;;4981791;28;19936;-66
2023/10/26 14:17:45;;;;;;;;;;;;;;;;;;5006427;28;20119;-66
2023/10/26 14:20:13;;;;;;;;;;;;;;;;;;5004337;28;20067;-66
2023/10/26 14:22:43;;;;;;;;;;;;;;;;;;5003537;28;19928;-66
2023/10/26 14:25:09;;;;;;;;;;;;;;;;;;4993733;28;19917;-66
2023/10/26 14:27:37;;;;;;;;;;;;;;;;;;5001732;28;19927;-66
2023/10/26 14:30:05;;;;;;;;;;;;;;;;;;5002079;28;19920;-66
2023/10/26 14:32:30;;;;;;;;;;;;;;;;;;5004535;28;19949;-66
2023/10/26 14:34:56;;;;;;;;;;;;;;;;;;5010430;28;20000;-66
2023/10/26 14:37:23;;;;;;;;;;;;;;;;;;5001634;28;19921;-66
2023/10/26 14:39:54;;;;;;;;;;;;;;;;;;5009928;28;20321;-66
2023/10/26 14:42:22;;;;;;;;;;;;;;;;;;5002537;28;19924;-66
2023/10/26 14:44:51;;;;;;;;;;;;;;;;;;4989859;28;20145;-66
2023/10/26 14:47:18;;;;;;;;;;;;;;;;;;5003044;28;19920;-66
2023/10/26 14:49:45;;;;;;;;;;;;;;;;;;4990634;28;20010;-66
2023/10/26 14:52:11;;;;;;;;;;;;;;;;;;5008705;28;19923;-66
2023/10/26 14:54:36;;;;;;;;;;;;;;;;;;5007593;28;19925;-66
2023/10/26 14:57:10;;;;;;;;;;;;;;;;;;5005230;28;20047;-66
2023/10/26 14:59:39;;;;;;;;;;;;;;;;;;5012395;28;20405;-66
2023/10/26 15:02:07;;;;;;;;;;;;;;;;;;5008250;28;20359;-66
2023/10/26 15:04:35;;;;;;;;;;;;;;;;;;5007372;28;19979;-66
2023/10/26 15:07:00;;;;;;;;;;;;;;;;;;5021731;28;19924;-66
2023/10/26 15:09:31;;;;;;;;;;;;;;;;;;5002789;28;20387;-65
2023/10/26 15:11:59;;;;;;;;;;;;;;;;;;5013737;28;19921;-65
2023/10/26 15:14:27;;;;;;;;;;;;;;;;;;5002650;28;19955;-66
2023/10/26 15:16:55;;;;;;;;;;;;;;;;;;4993844;28;19921;-66
2023/10/26 15:19:21;;;;;;;;;;;;;;;;;;4991143;28;19917;-66
2023/10/26 15:21:49;;;;;;;;;;;;;;;;;;5006047;28;20218;-66
2023/10/26 15:24:16;;;;;;;;;;;;;;;;;;5006823;28;19921;-66
2023/10/26 15:26:42;;;;;;;;;;;;;;;;;;5005654;28;20404;-66
2023/10/26 15:29:10;;;;;;;;;;;;;;;;;;4985167;28;19917;-65
2023/10/26 15:31:38;;;;;;;;;;;;;;;;;;5005389;28;20012;-66
2023/10/26 15:34:03;;;;;;;;;;;;;;;;;;4994203;28;20707;-66
2023/10/26 15:36:29;;;;;;;;;;;;;;;;;;4984209;28;21572;-66
2023/10/26 15:38:55;;;;;;;;;;;;;;;;;;5004544;28;19925;-66
2023/10/26 15:41:20;;;;;;;;;;;;;;;;;;5008532;28;20015;-66
2023/10/26 15:43:48;;;;;;;;;;;;;;;;;;5004542;28;19955;-65
2023/10/26 15:46:16;;;;;;;;;;;;;;;;;;5006259;28;19917;-66
2023/10/26 15:48:44;;;;;;;;;;;;;;;;;;4987955;28;20444;-66
2023/10/26 15:51:14;;;;;;;;;;;;;;;;;;4993432;28;20697;-65
2023/10/26 15:53:43;;;;;;;;;;;;;;;;;;5009963;28;19921;-66
2023/10/26 15:56:10;;;;;;;;;;;;;;;;;;4993024;28;19924;-65
2023/10/26 15:58:36;;;;;;;;;;;;;;;;;;5006287;28;19937;-66
2023/10/26 16:01:01;;;;;;;;;;;;;;;;;;5000851;28;19921;-66
2023/10/26 16:03:34;;;;;;;;;;;;;;;;;;4990428;28;20339;-65
2023/10/26 16:06:00;;;;;;;;;;;;;;;;;;4987177;28;19921;-66
2023/10/26 16:08:25;;;;;;;;;;;;;;;;;;5004514;28;20465;-66
2023/10/26 16:10:50;;;;;;;;;;;;;;;;;;5003736;28;20372;-65
2023/10/26 16:13:16;;;;;;;;;;;;;;;;;;4991215;28;19928;-66
2023/10/26 16:15:44;;;;;;;;;;;;;;;;;;4995963;28;19935;-65
2023/10/26 16:18:09;;;;;;;;;;;;;;;;;;4994887;28;19921;-65
2023/10/26 16:20:40;;;;;;;;;;;;;;;;;;5004668;28;20055;-66
2023/10/26 16:23:05;;;;;;;;;;;;;;;;;;4991311;28;20437;-66
2023/10/26 16:25:33;;;;;;;;;;;;;;;;;;4988078;28;19953;-65
2023/10/26 16:27:58;;;;;;;;;;;;;;;;;;4995223;28;19979;-65
2023/10/26 16:30:27;;;;;;;;;;;;;;;;;;4996078;28;19917;-65
2023/10/26 16:32:53;;;;;;;;;;;;;;;;;;4986386;28;19925;-65
2023/10/26 16:35:19;;;;;;;;;;;;;;;;;;5008364;28;19917;-66
2023/10/26 16:37:44;;;;;;;;;;;;;;;;;;4996543;28;19939;-64
2023/10/26 16:40:10;;;;;;;;;;;;;;;;;;4988515;28;20395;-65
2023/10/26 16:42:35;;;;;;;;;;;;;;;;;;4993479;28;21604;-65
2023/10/26 16:48:20;;;;;;;;;;;;;;;;;;5005284;28;19948;-65
2023/10/26 16:50:45;;;;;;;;;;;;;;;;;;4988069;28;19964;-65
2023/10/26 16:53:10;;;;;;;;;;;;;;;;;;4993729;28;20353;-64
2023/10/26 16:55:38;;;;;;;;;;;;;;;;;;5005283;28;19943;-65
2023/10/26 16:58:08;;;;;;;;;;;;;;;;;;5004213;28;19973;-66
2023/10/26 17:00:33;;;;;;;;;;;;;;;;;;5003796;28;19918;-66
2023/10/26 17:03:01;;;;;;;;;;;;;;;;;;5002960;28;20732;-66
2023/10/26 17:05:29;;;;;;;;;;;;;;;;;;5004296;28;19925;-65
2023/10/26 17:07:57;;;;;;;;;;;;;;;;;;4993684;28;19917;-67
2023/10/26 17:10:24;;;;;;;;;;;;;;;;;;4991654;28;20462;-66